Terminal Aerodrome Forecast
Issued by NWS

Home | Current Version | Previous Version | Text Only | Print | Product List | Glossary On
Versions: 1 2 3 4 5 6 7 8 9 10 11 12 13 14 15 16 17 18 19 20 21 22 23 24 25 26 27 28 29 30
000
FTUS42 KRAH 201801 CCA
TAFRWI
TAF COR
KRWI 201801Z 2018/2112 20007KT 6SM BR BKN009
     FM201900 20006KT P6SM BKN015
     FM202100 19005KT P6SM BKN040
     FM210400 20003KT 3SM BR BKN004
     FM210900 21003KT 1 1/2SM BR OVC002
     FM211130 22011KT P6SM OVC015=

USA.gov is the U.S. government's official web portal to all federal, state and local government web resources and services.